sensor_id;sensor_type;location;lat;lon;timestamp;P1;durP1;ratioP1;P2;durP2;ratioP2
37655;SDS011;23498;50.958;3.124;2023-02-28T00:01:09;10.43;;;6.47;;
37655;SDS011;23498;50.958;3.124;2023-02-28T00:03:35;10.15;;;6.60;;
37655;SDS011;23498;50.958;3.124;2023-02-28T00:06:02;9.05;;;6.47;;
37655;SDS011;23498;50.958;3.124;2023-02-28T00:08:28;9.95;;;6.55;;
37655;SDS011;23498;50.958;3.124;2023-02-28T00:10:54;11.02;;;6.53;;
37655;SDS011;23498;50.958;3.124;2023-02-28T00:13:20;11.05;;;6.80;;
37655;SDS011;23498;50.958;3.124;2023-02-28T00:15:46;10.15;;;7.32;;
37655;SDS011;23498;50.958;3.124;2023-02-28T00:18:12;10.52;;;7.22;;
37655;SDS011;23498;50.958;3.124;2023-02-28T00:20:38;11.82;;;7.30;;
37655;SDS011;23498;50.958;3.124;2023-02-28T00:23:04;10.85;;;7.05;;
37655;SDS011;23498;50.958;3.124;2023-02-28T00:25:30;12.35;;;6.97;;
37655;SDS011;23498;50.958;3.124;2023-02-28T00:27:56;13.50;;;7.22;;
37655;SDS011;23498;50.958;3.124;2023-02-28T00:30:22;12.55;;;7.45;;
37655;SDS011;23498;50.958;3.124;2023-02-28T00:32:49;12.48;;;7.75;;
37655;SDS011;23498;50.958;3.124;2023-02-28T00:35:15;10.00;;;7.10;;
37655;SDS011;23498;50.958;3.124;2023-02-28T00:37:41;12.70;;;7.63;;
37655;SDS011;23498;50.958;3.124;2023-02-28T00:40:07;11.65;;;8.02;;
37655;SDS011;23498;50.958;3.124;2023-02-28T00:42:34;13.13;;;7.78;;
37655;SDS011;23498;50.958;3.124;2023-02-28T00:45:01;11.85;;;8.18;;
37655;SDS011;23498;50.958;3.124;2023-02-28T00:47:28;11.07;;;8.07;;
37655;SDS011;23498;50.958;3.124;2023-02-28T00:49:54;13.43;;;8.07;;
37655;SDS011;23498;50.958;3.124;2023-02-28T00:52:20;12.13;;;8.23;;
37655;SDS011;23498;50.958;3.124;2023-02-28T00:54:46;13.40;;;8.07;;
37655;SDS011;23498;50.958;3.124;2023-02-28T00:57:12;11.32;;;7.60;;
37655;SDS011;23498;50.958;3.124;2023-02-28T00:59:38;12.80;;;8.30;;
37655;SDS011;23498;50.958;3.124;2023-02-28T01:02:04;11.00;;;7.75;;
37655;SDS011;23498;50.958;3.124;2023-02-28T01:04:30;11.77;;;7.30;;
37655;SDS011;23498;50.958;3.124;2023-02-28T01:06:56;12.38;;;7.88;;
37655;SDS011;23498;50.958;3.124;2023-02-28T01:09:22;10.82;;;8.02;;
37655;SDS011;23498;50.958;3.124;2023-02-28T01:11:48;12.38;;;7.88;;
37655;SDS011;23498;50.958;3.124;2023-02-28T01:14:15;11.90;;;7.93;;
37655;SDS011;23498;50.958;3.124;2023-02-28T01:16:41;15.85;;;8.10;;
37655;SDS011;23498;50.958;3.124;2023-02-28T01:19:07;12.10;;;7.88;;
37655;SDS011;23498;50.958;3.124;2023-02-28T01:21:33;13.40;;;7.57;;
37655;SDS011;23498;50.958;3.124;2023-02-28T01:24:00;11.73;;;7.80;;
37655;SDS011;23498;50.958;3.124;2023-02-28T01:26:26;13.65;;;8.43;;
37655;SDS011;23498;50.958;3.124;2023-02-28T01:28:52;13.85;;;8.48;;
37655;SDS011;23498;50.958;3.124;2023-02-28T01:31:19;13.00;;;7.65;;
37655;SDS011;23498;50.958;3.124;2023-02-28T01:33:45;13.73;;;7.53;;
37655;SDS011;23498;50.958;3.124;2023-02-28T01:36:12;15.93;;;8.50;;
37655;SDS011;23498;50.958;3.124;2023-02-28T01:38:39;13.32;;;7.82;;
37655;SDS011;23498;50.958;3.124;2023-02-28T01:41:05;13.93;;;7.60;;
37655;SDS011;23498;50.958;3.124;2023-02-28T01:46:10;12.18;;;7.85;;
37655;SDS011;23498;50.958;3.124;2023-02-28T01:48:41;13.38;;;8.13;;
37655;SDS011;23498;50.958;3.124;2023-02-28T01:51:09;14.45;;;8.00;;
37655;SDS011;23498;50.958;3.124;2023-02-28T01:53:39;14.80;;;7.78;;
37655;SDS011;23498;50.958;3.124;2023-02-28T01:58:34;14.98;;;7.95;;
37655;SDS011;23498;50.958;3.124;2023-02-28T02:01:02;14.00;;;7.88;;
37655;SDS011;23498;50.958;3.124;2023-02-28T02:03:28;13.68;;;8.07;;
37655;SDS011;23498;50.958;3.124;2023-02-28T02:05:55;15.23;;;8.57;;
37655;SDS011;23498;50.958;3.124;2023-02-28T02:08:25;11.73;;;7.45;;
37655;SDS011;23498;50.958;3.124;2023-02-28T02:10:52;11.80;;;8.15;;
37655;SDS011;23498;50.958;3.124;2023-02-28T02:26:11;14.48;;;9.10;;
37655;SDS011;23498;50.958;3.124;2023-02-28T02:29:02;13.57;;;8.85;;
37655;SDS011;23498;50.958;3.124;2023-02-28T02:36:42;13.68;;;8.15;;
37655;SDS011;23498;50.958;3.124;2023-02-28T02:41:47;12.68;;;8.88;;
37655;SDS011;23498;50.958;3.124;2023-02-28T02:44:21;15.07;;;8.70;;
37655;SDS011;23498;50.958;3.124;2023-02-28T02:46:49;13.25;;;8.68;;
37655;SDS011;23498;50.958;3.124;2023-02-28T02:49:33;14.75;;;9.88;;
37655;SDS011;23498;50.958;3.124;2023-02-28T02:52:02;15.90;;;9.40;;
37655;SDS011;23498;50.958;3.124;2023-02-28T02:54:30;14.18;;;9.25;;
37655;SDS011;23498;50.958;3.124;2023-02-28T02:56:59;12.82;;;9.20;;
37655;SDS011;23498;50.958;3.124;2023-02-28T02:59:25;14.65;;;9.65;;
37655;SDS011;23498;50.958;3.124;2023-02-28T03:01:55;15.00;;;9.90;;
37655;SDS011;23498;50.958;3.124;2023-02-28T03:04:23;17.88;;;10.32;;
37655;SDS011;23498;50.958;3.124;2023-02-28T03:06:50;14.52;;;9.82;;
37655;SDS011;23498;50.958;3.124;2023-02-28T03:09:20;16.60;;;10.43;;
37655;SDS011;23498;50.958;3.124;2023-02-28T03:11:46;16.50;;;10.38;;
37655;SDS011;23498;50.958;3.124;2023-02-28T03:27:16;17.42;;;11.35;;
37655;SDS011;23498;50.958;3.124;2023-02-28T03:29:50;19.33;;;12.20;;
37655;SDS011;23498;50.958;3.124;2023-02-28T03:34:47;16.75;;;12.25;;
37655;SDS011;23498;50.958;3.124;2023-02-28T03:37:16;20.92;;;12.65;;
37655;SDS011;23498;50.958;3.124;2023-02-28T03:40:19;17.98;;;11.88;;
37655;SDS011;23498;50.958;3.124;2023-02-28T03:42:37;18.75;;;12.15;;
37655;SDS011;23498;50.958;3.124;2023-02-28T03:45:05;17.17;;;12.30;;
37655;SDS011;23498;50.958;3.124;2023-02-28T03:47:41;20.63;;;12.65;;
37655;SDS011;23498;50.958;3.124;2023-02-28T03:50:26;19.35;;;12.10;;
37655;SDS011;23498;50.958;3.124;2023-02-28T03:55:25;19.27;;;13.20;;
37655;SDS011;23498;50.958;3.124;2023-02-28T03:57:56;16.80;;;12.18;;
37655;SDS011;23498;50.958;3.124;2023-02-28T04:00:27;19.33;;;12.75;;
37655;SDS011;23498;50.958;3.124;2023-02-28T04:02:55;18.45;;;12.18;;
37655;SDS011;23498;50.958;3.124;2023-02-28T04:05:22;18.38;;;12.48;;
37655;SDS011;23498;50.958;3.124;2023-02-28T04:07:48;18.17;;;12.27;;
37655;SDS011;23498;50.958;3.124;2023-02-28T04:10:15;17.20;;;12.40;;
37655;SDS011;23498;50.958;3.124;2023-02-28T04:12:41;18.52;;;12.23;;
37655;SDS011;23498;50.958;3.124;2023-02-28T04:15:07;18.05;;;12.65;;
37655;SDS011;23498;50.958;3.124;2023-02-28T04:17:35;17.00;;;12.20;;
37655;SDS011;23498;50.958;3.124;2023-02-28T04:20:01;20.33;;;13.20;;
37655;SDS011;23498;50.958;3.124;2023-02-28T04:22:28;20.98;;;13.18;;
37655;SDS011;23498;50.958;3.124;2023-02-28T04:24:54;20.10;;;13.25;;
37655;SDS011;23498;50.958;3.124;2023-02-28T04:27:20;20.77;;;12.70;;
37655;SDS011;23498;50.958;3.124;2023-02-28T04:29:47;19.27;;;13.02;;
37655;SDS011;23498;50.958;3.124;2023-02-28T04:32:13;19.63;;;13.45;;
37655;SDS011;23498;50.958;3.124;2023-02-28T04:34:40;19.73;;;12.70;;
37655;SDS011;23498;50.958;3.124;2023-02-28T04:37:06;20.95;;;13.82;;
37655;SDS011;23498;50.958;3.124;2023-02-28T04:39:34;20.67;;;13.38;;
37655;SDS011;23498;50.958;3.124;2023-02-28T04:42:00;24.45;;;13.43;;
37655;SDS011;23498;50.958;3.124;2023-02-28T04:44:26;19.33;;;12.95;;
37655;SDS011;23498;50.958;3.124;2023-02-28T04:46:52;20.90;;;13.20;;
37655;SDS011;23498;50.958;3.124;2023-02-28T04:49:18;21.88;;;12.88;;
37655;SDS011;23498;50.958;3.124;2023-02-28T04:51:44;20.30;;;13.45;;
37655;SDS011;23498;50.958;3.124;2023-02-28T04:54:10;19.63;;;12.35;;
37655;SDS011;23498;50.958;3.124;2023-02-28T04:56:36;19.67;;;13.52;;
37655;SDS011;23498;50.958;3.124;2023-02-28T04:59:02;17.67;;;12.43;;
37655;SDS011;23498;50.958;3.124;2023-02-28T05:01:30;20.25;;;12.35;;
37655;SDS011;23498;50.958;3.124;2023-02-28T05:03:57;20.67;;;12.32;;
37655;SDS011;23498;50.958;3.124;2023-02-28T05:06:24;19.58;;;12.07;;
37655;SDS011;23498;50.958;3.124;2023-02-28T05:08:51;16.70;;;11.77;;
37655;SDS011;23498;50.958;3.124;2023-02-28T05:13:47;20.88;;;11.25;;
37655;SDS011;23498;50.958;3.124;2023-02-28T05:16:13;16.67;;;11.05;;
37655;SDS011;23498;50.958;3.124;2023-02-28T05:18:39;17.33;;;10.95;;
37655;SDS011;23498;50.958;3.124;2023-02-28T05:21:05;18.83;;;11.10;;
37655;SDS011;23498;50.958;3.124;2023-02-28T05:23:31;18.27;;;11.20;;
37655;SDS011;23498;50.958;3.124;2023-02-28T05:25:57;18.50;;;11.15;;
37655;SDS011;23498;50.958;3.124;2023-02-28T05:28:23;17.77;;;10.63;;
37655;SDS011;23498;50.958;3.124;2023-02-28T05:30:49;16.85;;;11.07;;
37655;SDS011;23498;50.958;3.124;2023-02-28T05:33:15;20.35;;;11.02;;
37655;SDS011;23498;50.958;3.124;2023-02-28T05:35:41;15.82;;;10.75;;
37655;SDS011;23498;50.958;3.124;2023-02-28T05:38:07;17.33;;;10.88;;
37655;SDS011;23498;50.958;3.124;2023-02-28T05:40:34;17.55;;;10.82;;
37655;SDS011;23498;50.958;3.124;2023-02-28T05:43:00;16.35;;;11.25;;
37655;SDS011;23498;50.958;3.124;2023-02-28T05:45:26;16.30;;;10.75;;
37655;SDS011;23498;50.958;3.124;2023-02-28T05:47:55;17.67;;;11.20;;
37655;SDS011;23498;50.958;3.124;2023-02-28T05:50:21;16.13;;;10.77;;
37655;SDS011;23498;50.958;3.124;2023-02-28T05:52:51;20.95;;;11.82;;
37655;SDS011;23498;50.958;3.124;2023-02-28T05:55:17;17.17;;;11.65;;
37655;SDS011;23498;50.958;3.124;2023-02-28T05:57:43;17.60;;;11.73;;
37655;SDS011;23498;50.958;3.124;2023-02-28T06:00:09;17.58;;;12.00;;
37655;SDS011;23498;50.958;3.124;2023-02-28T06:02:35;17.17;;;11.60;;
37655;SDS011;23498;50.958;3.124;2023-02-28T06:05:01;15.38;;;11.48;;
37655;SDS011;23498;50.958;3.124;2023-02-28T06:07:27;16.88;;;11.95;;
37655;SDS011;23498;50.958;3.124;2023-02-28T06:09:53;16.08;;;11.43;;
37655;SDS011;23498;50.958;3.124;2023-02-28T06:12:19;21.48;;;13.57;;
37655;SDS011;23498;50.958;3.124;2023-02-28T06:14:45;44.40;;;22.52;;
37655;SDS011;23498;50.958;3.124;2023-02-28T06:17:11;47.78;;;23.25;;
37655;SDS011;23498;50.958;3.124;2023-02-28T06:19:37;35.15;;;21.38;;
37655;SDS011;23498;50.958;3.124;2023-02-28T06:22:04;25.75;;;15.73;;
37655;SDS011;23498;50.958;3.124;2023-02-28T06:24:31;18.13;;;12.55;;
37655;SDS011;23498;50.958;3.124;2023-02-28T06:26:57;19.35;;;12.73;;
37655;SDS011;23498;50.958;3.124;2023-02-28T06:29:29;18.33;;;12.13;;
37655;SDS011;23498;50.958;3.124;2023-02-28T06:31:55;18.02;;;11.25;;
37655;SDS011;23498;50.958;3.124;2023-02-28T06:34:21;14.82;;;9.85;;
37655;SDS011;23498;50.958;3.124;2023-02-28T06:36:49;12.43;;;9.15;;
37655;SDS011;23498;50.958;3.124;2023-02-28T06:39:15;12.95;;;9.18;;
37655;SDS011;23498;50.958;3.124;2023-02-28T06:41:42;13.05;;;8.77;;
37655;SDS011;23498;50.958;3.124;2023-02-28T06:44:20;12.68;;;7.80;;
37655;SDS011;23498;50.958;3.124;2023-02-28T06:46:46;14.40;;;8.07;;
37655;SDS011;23498;50.958;3.124;2023-02-28T06:49:12;13.32;;;8.10;;
37655;SDS011;23498;50.958;3.124;2023-02-28T06:51:39;12.40;;;7.50;;
37655;SDS011;23498;50.958;3.124;2023-02-28T06:54:06;10.43;;;7.10;;
37655;SDS011;23498;50.958;3.124;2023-02-28T06:56:36;13.02;;;8.30;;
37655;SDS011;23498;50.958;3.124;2023-02-28T06:59:02;11.27;;;7.38;;
37655;SDS011;23498;50.958;3.124;2023-02-28T07:01:28;11.98;;;7.50;;
37655;SDS011;23498;50.958;3.124;2023-02-28T07:03:56;12.13;;;8.10;;
37655;SDS011;23498;50.958;3.124;2023-02-28T07:06:22;13.25;;;8.15;;
37655;SDS011;23498;50.958;3.124;2023-02-28T07:08:49;13.18;;;8.20;;
37655;SDS011;23498;50.958;3.124;2023-02-28T07:11:15;15.68;;;8.27;;
37655;SDS011;23498;50.958;3.124;2023-02-28T07:13:41;15.60;;;9.90;;
37655;SDS011;23498;50.958;3.124;2023-02-28T07:16:10;14.07;;;9.25;;
37655;SDS011;23498;50.958;3.124;2023-02-28T07:18:37;15.40;;;8.93;;
37655;SDS011;23498;50.958;3.124;2023-02-28T07:21:07;12.23;;;8.85;;
37655;SDS011;23498;50.958;3.124;2023-02-28T07:23:34;14.30;;;9.10;;
37655;SDS011;23498;50.958;3.124;2023-02-28T07:26:00;14.00;;;9.90;;
37655;SDS011;23498;50.958;3.124;2023-02-28T07:28:26;13.77;;;9.27;;
37655;SDS011;23498;50.958;3.124;2023-02-28T07:30:52;13.95;;;10.07;;
37655;SDS011;23498;50.958;3.124;2023-02-28T07:33:18;13.48;;;9.35;;
37655;SDS011;23498;50.958;3.124;2023-02-28T07:35:44;14.77;;;10.02;;
37655;SDS011;23498;50.958;3.124;2023-02-28T07:38:10;14.18;;;8.50;;
37655;SDS011;23498;50.958;3.124;2023-02-28T07:40:38;13.27;;;9.80;;
37655;SDS011;23498;50.958;3.124;2023-02-28T07:43:04;13.95;;;8.82;;
37655;SDS011;23498;50.958;3.124;2023-02-28T07:45:30;13.18;;;8.82;;
37655;SDS011;23498;50.958;3.124;2023-02-28T07:47:59;13.95;;;8.85;;
37655;SDS011;23498;50.958;3.124;2023-02-28T07:50:25;14.35;;;8.82;;
37655;SDS011;23498;50.958;3.124;2023-02-28T07:52:54;12.48;;;7.97;;
37655;SDS011;23498;50.958;3.124;2023-02-28T07:55:20;14.43;;;8.70;;
37655;SDS011;23498;50.958;3.124;2023-02-28T07:57:46;13.52;;;8.52;;
37655;SDS011;23498;50.958;3.124;2023-02-28T08:00:12;13.43;;;8.05;;
37655;SDS011;23498;50.958;3.124;2023-02-28T08:02:38;15.63;;;8.88;;
37655;SDS011;23498;50.958;3.124;2023-02-28T08:05:05;12.18;;;8.00;;
37655;SDS011;23498;50.958;3.124;2023-02-28T08:07:31;15.40;;;9.63;;
37655;SDS011;23498;50.958;3.124;2023-02-28T08:09:58;14.82;;;8.50;;
37655;SDS011;23498;50.958;3.124;2023-02-28T08:12:24;15.45;;;8.85;;
37655;SDS011;23498;50.958;3.124;2023-02-28T08:14:50;17.00;;;8.40;;
37655;SDS011;23498;50.958;3.124;2023-02-28T08:17:16;15.00;;;8.82;;
37655;SDS011;23498;50.958;3.124;2023-02-28T08:19:44;15.70;;;7.30;;
37655;SDS011;23498;50.958;3.124;2023-02-28T08:22:11;13.85;;;8.13;;
37655;SDS011;23498;50.958;3.124;2023-02-28T08:24:37;10.80;;;7.07;;
37655;SDS011;23498;50.958;3.124;2023-02-28T08:27:03;10.70;;;6.28;;
37655;SDS011;23498;50.958;3.124;2023-02-28T08:29:29;11.93;;;5.85;;
37655;SDS011;23498;50.958;3.124;2023-02-28T08:31:55;12.00;;;6.38;;
37655;SDS011;23498;50.958;3.124;2023-02-28T08:34:21;9.68;;;5.43;;
37655;SDS011;23498;50.958;3.124;2023-02-28T08:36:48;9.38;;;5.20;;
37655;SDS011;23498;50.958;3.124;2023-02-28T08:39:14;8.23;;;5.15;;
37655;SDS011;23498;50.958;3.124;2023-02-28T08:41:41;8.75;;;4.75;;
37655;SDS011;23498;50.958;3.124;2023-02-28T08:44:07;7.57;;;4.25;;
37655;SDS011;23498;50.958;3.124;2023-02-28T08:46:33;7.45;;;4.30;;
37655;SDS011;23498;50.958;3.124;2023-02-28T08:48:59;8.77;;;3.88;;
37655;SDS011;23498;50.958;3.124;2023-02-28T08:51:26;6.03;;;3.67;;
37655;SDS011;23498;50.958;3.124;2023-02-28T08:53:53;8.32;;;3.88;;
37655;SDS011;23498;50.958;3.124;2023-02-28T08:56:20;6.35;;;3.88;;
37655;SDS011;23498;50.958;3.124;2023-02-28T08:58:47;7.50;;;3.85;;
37655;SDS011;23498;50.958;3.124;2023-02-28T09:01:14;6.32;;;3.90;;
37655;SDS011;23498;50.958;3.124;2023-02-28T09:03:41;6.80;;;4.10;;
37655;SDS011;23498;50.958;3.124;2023-02-28T09:06:08;8.48;;;4.50;;
37655;SDS011;23498;50.958;3.124;2023-02-28T09:08:34;13.52;;;4.97;;
37655;SDS011;23498;50.958;3.124;2023-02-28T09:11:00;8.23;;;3.85;;
37655;SDS011;23498;50.958;3.124;2023-02-28T09:13:26;10.68;;;3.92;;
37655;SDS011;23498;50.958;3.124;2023-02-28T09:15:53;5.43;;;3.20;;
37655;SDS011;23498;50.958;3.124;2023-02-28T09:18:21;6.40;;;4.03;;
37655;SDS011;23498;50.958;3.124;2023-02-28T09:20:47;6.82;;;3.83;;
37655;SDS011;23498;50.958;3.124;2023-02-28T09:23:13;5.22;;;3.08;;
37655;SDS011;23498;50.958;3.124;2023-02-28T09:25:46;5.97;;;3.40;;
37655;SDS011;23498;50.958;3.124;2023-02-28T09:28:13;6.07;;;3.03;;
37655;SDS011;23498;50.958;3.124;2023-02-28T09:30:44;6.13;;;3.45;;
37655;SDS011;23498;50.958;3.124;2023-02-28T09:33:10;7.35;;;3.35;;
37655;SDS011;23498;50.958;3.124;2023-02-28T09:35:36;9.40;;;4.03;;
37655;SDS011;23498;50.958;3.124;2023-02-28T09:38:02;6.65;;;4.00;;
37655;SDS011;23498;50.958;3.124;2023-02-28T09:40:28;7.65;;;4.25;;
37655;SDS011;23498;50.958;3.124;2023-02-28T09:42:55;5.97;;;3.60;;
37655;SDS011;23498;50.958;3.124;2023-02-28T09:45:32;8.00;;;4.63;;
37655;SDS011;23498;50.958;3.124;2023-02-28T09:47:59;20.02;;;6.47;;
37655;SDS011;23498;50.958;3.124;2023-02-28T09:50:36;14.30;;;5.95;;
37655;SDS011;23498;50.958;3.124;2023-02-28T09:53:06;7.13;;;4.10;;
37655;SDS011;23498;50.958;3.124;2023-02-28T09:55:42;9.27;;;4.72;;
37655;SDS011;23498;50.958;3.124;2023-02-28T10:00:56;6.85;;;3.75;;
37655;SDS011;23498;50.958;3.124;2023-02-28T10:03:35;7.05;;;3.38;;
37655;SDS011;23498;50.958;3.124;2023-02-28T10:08:36;7.80;;;4.00;;
37655;SDS011;23498;50.958;3.124;2023-02-28T10:11:07;8.50;;;3.80;;
37655;SDS011;23498;50.958;3.124;2023-02-28T10:16:10;6.20;;;3.60;;
37655;SDS011;23498;50.958;3.124;2023-02-28T10:18:41;8.23;;;3.78;;
37655;SDS011;23498;50.958;3.124;2023-02-28T10:21:13;6.55;;;3.65;;
37655;SDS011;23498;50.958;3.124;2023-02-28T10:26:13;6.50;;;3.58;;
37655;SDS011;23498;50.958;3.124;2023-02-28T10:28:41;6.20;;;3.60;;
37655;SDS011;23498;50.958;3.124;2023-02-28T10:31:08;5.72;;;3.92;;
37655;SDS011;23498;50.958;3.124;2023-02-28T10:33:37;6.18;;;3.88;;
37655;SDS011;23498;50.958;3.124;2023-02-28T10:36:03;7.30;;;4.03;;
37655;SDS011;23498;50.958;3.124;2023-02-28T10:38:32;10.55;;;3.70;;
37655;SDS011;23498;50.958;3.124;2023-02-28T10:41:06;7.25;;;3.83;;
37655;SDS011;23498;50.958;3.124;2023-02-28T10:43:33;9.05;;;3.75;;
37655;SDS011;23498;50.958;3.124;2023-02-28T10:48:27;6.70;;;4.10;;
37655;SDS011;23498;50.958;3.124;2023-02-28T10:51:04;8.63;;;4.20;;
37655;SDS011;23498;50.958;3.124;2023-02-28T10:56:06;6.75;;;4.25;;
37655;SDS011;23498;50.958;3.124;2023-02-28T11:01:21;7.15;;;4.80;;
37655;SDS011;23498;50.958;3.124;2023-02-28T11:06:59;11.02;;;4.85;;
37655;SDS011;23498;50.958;3.124;2023-02-28T11:09:29;7.95;;;4.57;;
37655;SDS011;23498;50.958;3.124;2023-02-28T11:11:56;9.55;;;5.70;;
37655;SDS011;23498;50.958;3.124;2023-02-28T11:14:24;7.93;;;4.43;;
37655;SDS011;23498;50.958;3.124;2023-02-28T11:16:50;8.70;;;4.93;;
37655;SDS011;23498;50.958;3.124;2023-02-28T11:19:18;8.95;;;5.40;;
37655;SDS011;23498;50.958;3.124;2023-02-28T11:21:56;10.13;;;5.30;;
37655;SDS011;23498;50.958;3.124;2023-02-28T11:24:30;8.38;;;4.60;;
37655;SDS011;23498;50.958;3.124;2023-02-28T11:26:57;11.18;;;4.20;;
37655;SDS011;23498;50.958;3.124;2023-02-28T11:29:25;8.05;;;4.45;;
37655;SDS011;23498;50.958;3.124;2023-02-28T11:32:03;8.60;;;4.10;;
37655;SDS011;23498;50.958;3.124;2023-02-28T11:34:30;7.55;;;4.03;;
37655;SDS011;23498;50.958;3.124;2023-02-28T11:36:57;6.68;;;4.00;;
37655;SDS011;23498;50.958;3.124;2023-02-28T11:39:24;9.77;;;4.30;;
37655;SDS011;23498;50.958;3.124;2023-02-28T11:41:58;6.70;;;3.67;;
37655;SDS011;23498;50.958;3.124;2023-02-28T11:47:00;7.32;;;4.07;;
37655;SDS011;23498;50.958;3.124;2023-02-28T11:49:31;5.72;;;3.88;;
37655;SDS011;23498;50.958;3.124;2023-02-28T11:54:51;6.38;;;3.95;;
37655;SDS011;23498;50.958;3.124;2023-02-28T11:57:43;6.55;;;3.92;;
37655;SDS011;23498;50.958;3.124;2023-02-28T12:00:24;5.80;;;3.78;;
37655;SDS011;23498;50.958;3.124;2023-02-28T12:05:41;7.22;;;4.10;;
37655;SDS011;23498;50.958;3.124;2023-02-28T12:16:23;7.53;;;4.53;;
37655;SDS011;23498;50.958;3.124;2023-02-28T12:18:59;5.40;;;2.97;;
37655;SDS011;23498;50.958;3.124;2023-02-28T12:26:53;6.00;;;3.20;;
37655;SDS011;23498;50.958;3.124;2023-02-28T12:29:22;5.40;;;2.70;;
37655;SDS011;23498;50.958;3.124;2023-02-28T13:01:33;7.45;;;3.80;;
37655;SDS011;23498;50.958;3.124;2023-02-28T13:08:49;6.75;;;4.13;;
37655;SDS011;23498;50.958;3.124;2023-02-28T13:14:03;4.93;;;3.75;;
37655;SDS011;23498;50.958;3.124;2023-02-28T13:24:54;5.72;;;3.53;;
37655;SDS011;23498;50.958;3.124;2023-02-28T13:29:49;7.57;;;3.60;;
37655;SDS011;23498;50.958;3.124;2023-02-28T13:47:41;6.40;;;4.10;;
37655;SDS011;23498;50.958;3.124;2023-02-28T13:52:48;6.13;;;4.47;;
37655;SDS011;23498;50.958;3.124;2023-02-28T14:00:48;7.85;;;4.20;;
37655;SDS011;23498;50.958;3.124;2023-02-28T14:03:33;10.45;;;4.43;;
37655;SDS011;23498;50.958;3.124;2023-02-28T14:08:28;6.53;;;3.80;;
37655;SDS011;23498;50.958;3.124;2023-02-28T14:11:08;5.38;;;3.67;;
37655;SDS011;23498;50.958;3.124;2023-02-28T14:13:42;5.97;;;4.03;;
37655;SDS011;23498;50.958;3.124;2023-02-28T14:16:22;7.13;;;3.35;;
37655;SDS011;23498;50.958;3.124;2023-02-28T14:26:41;7.63;;;2.88;;
37655;SDS011;23498;50.958;3.124;2023-02-28T14:29:15;4.93;;;2.60;;
37655;SDS011;23498;50.958;3.124;2023-02-28T14:31:53;6.05;;;3.20;;
37655;SDS011;23498;50.958;3.124;2023-02-28T14:35:05;6.20;;;2.85;;
37655;SDS011;23498;50.958;3.124;2023-02-28T14:37:10;4.95;;;2.95;;
37655;SDS011;23498;50.958;3.124;2023-02-28T14:39:41;5.38;;;2.80;;
37655;SDS011;23498;50.958;3.124;2023-02-28T14:45:16;5.20;;;3.00;;
37655;SDS011;23498;50.958;3.124;2023-02-28T14:47:43;5.72;;;3.25;;
37655;SDS011;23498;50.958;3.124;2023-02-28T14:50:17;5.00;;;3.05;;
37655;SDS011;23498;50.958;3.124;2023-02-28T14:52:43;5.28;;;3.25;;
37655;SDS011;23498;50.958;3.124;2023-02-28T14:55:12;5.35;;;2.80;;
37655;SDS011;23498;50.958;3.124;2023-02-28T14:57:41;5.38;;;4.00;;
37655;SDS011;23498;50.958;3.124;2023-02-28T15:02:37;6.15;;;3.95;;
37655;SDS011;23498;50.958;3.124;2023-02-28T15:07:35;5.60;;;3.83;;
37655;SDS011;23498;50.958;3.124;2023-02-28T15:10:09;4.80;;;3.17;;
37655;SDS011;23498;50.958;3.124;2023-02-28T15:12:36;4.28;;;3.00;;
37655;SDS011;23498;50.958;3.124;2023-02-28T15:15:02;6.30;;;2.80;;
37655;SDS011;23498;50.958;3.124;2023-02-28T15:17:29;6.10;;;3.60;;
37655;SDS011;23498;50.958;3.124;2023-02-28T15:19:55;6.65;;;3.50;;
37655;SDS011;23498;50.958;3.124;2023-02-28T15:22:26;5.15;;;3.03;;
37655;SDS011;23498;50.958;3.124;2023-02-28T15:24:54;5.63;;;3.72;;
37655;SDS011;23498;50.958;3.124;2023-02-28T15:27:21;4.45;;;3.10;;
37655;SDS011;23498;50.958;3.124;2023-02-28T15:29:51;5.68;;;2.92;;
37655;SDS011;23498;50.958;3.124;2023-02-28T15:34:51;4.53;;;3.00;;
37655;SDS011;23498;50.958;3.124;2023-02-28T15:37:37;4.18;;;3.15;;
37655;SDS011;23498;50.958;3.124;2023-02-28T15:40:24;5.15;;;3.55;;
37655;SDS011;23498;50.958;3.124;2023-02-28T15:42:58;5.65;;;3.20;;
37655;SDS011;23498;50.958;3.124;2023-02-28T15:45:35;5.10;;;3.40;;
37655;SDS011;23498;50.958;3.124;2023-02-28T15:48:09;4.45;;;2.88;;
37655;SDS011;23498;50.958;3.124;2023-02-28T15:50:38;9.00;;;4.93;;
37655;SDS011;23498;50.958;3.124;2023-02-28T15:53:04;6.05;;;3.28;;
37655;SDS011;23498;50.958;3.124;2023-02-28T15:55:37;6.53;;;3.38;;
37655;SDS011;23498;50.958;3.124;2023-02-28T15:58:04;4.82;;;3.22;;
37655;SDS011;23498;50.958;3.124;2023-02-28T16:00:31;5.05;;;3.40;;
37655;SDS011;23498;50.958;3.124;2023-02-28T16:03:00;5.65;;;3.13;;
37655;SDS011;23498;50.958;3.124;2023-02-28T16:05:30;6.47;;;3.80;;
37655;SDS011;23498;50.958;3.124;2023-02-28T16:08:14;6.05;;;3.80;;
37655;SDS011;23498;50.958;3.124;2023-02-28T16:10:40;5.47;;;3.40;;
37655;SDS011;23498;50.958;3.124;2023-02-28T16:13:06;6.38;;;3.47;;
37655;SDS011;23498;50.958;3.124;2023-02-28T16:15:41;6.75;;;3.60;;
37655;SDS011;23498;50.958;3.124;2023-02-28T16:18:16;6.13;;;3.90;;
37655;SDS011;23498;50.958;3.124;2023-02-28T16:20:42;6.43;;;3.58;;
37655;SDS011;23498;50.958;3.124;2023-02-28T16:23:09;7.45;;;3.83;;
37655;SDS011;23498;50.958;3.124;2023-02-28T16:28:01;5.60;;;4.38;;
37655;SDS011;23498;50.958;3.124;2023-02-28T16:30:28;7.30;;;4.18;;
37655;SDS011;23498;50.958;3.124;2023-02-28T16:32:56;8.05;;;4.40;;
37655;SDS011;23498;50.958;3.124;2023-02-28T16:35:23;5.47;;;4.07;;
37655;SDS011;23498;50.958;3.124;2023-02-28T16:37:52;17.98;;;9.82;;
37655;SDS011;23498;50.958;3.124;2023-02-28T16:40:19;7.40;;;4.38;;
37655;SDS011;23498;50.958;3.124;2023-02-28T16:42:46;4.68;;;3.85;;
37655;SDS011;23498;50.958;3.124;2023-02-28T16:45:17;8.43;;;5.28;;
37655;SDS011;23498;50.958;3.124;2023-02-28T16:47:44;7.90;;;4.75;;
37655;SDS011;23498;50.958;3.124;2023-02-28T16:50:14;5.97;;;4.55;;
37655;SDS011;23498;50.958;3.124;2023-02-28T16:52:41;5.85;;;4.50;;
37655;SDS011;23498;50.958;3.124;2023-02-28T16:55:07;5.95;;;4.10;;
37655;SDS011;23498;50.958;3.124;2023-02-28T16:57:33;6.13;;;3.88;;
37655;SDS011;23498;50.958;3.124;2023-02-28T16:59:59;8.45;;;4.22;;
37655;SDS011;23498;50.958;3.124;2023-02-28T17:02:25;7.13;;;4.93;;
37655;SDS011;23498;50.958;3.124;2023-02-28T17:04:51;8.38;;;4.38;;
37655;SDS011;23498;50.958;3.124;2023-02-28T17:07:17;8.35;;;5.00;;
37655;SDS011;23498;50.958;3.124;2023-02-28T17:09:43;13.27;;;7.75;;
37655;SDS011;23498;50.958;3.124;2023-02-28T17:12:09;9.25;;;4.65;;
37655;SDS011;23498;50.958;3.124;2023-02-28T17:14:39;9.35;;;6.78;;
37655;SDS011;23498;50.958;3.124;2023-02-28T17:17:05;9.57;;;5.65;;
37655;SDS011;23498;50.958;3.124;2023-02-28T17:19:32;6.78;;;4.75;;
37655;SDS011;23498;50.958;3.124;2023-02-28T17:22:01;9.85;;;5.60;;
37655;SDS011;23498;50.958;3.124;2023-02-28T17:24:28;8.40;;;5.55;;
37655;SDS011;23498;50.958;3.124;2023-02-28T17:26:54;6.95;;;4.68;;
37655;SDS011;23498;50.958;3.124;2023-02-28T17:29:20;8.75;;;5.00;;
37655;SDS011;23498;50.958;3.124;2023-02-28T17:31:47;8.52;;;4.85;;
37655;SDS011;23498;50.958;3.124;2023-02-28T17:34:13;9.65;;;5.35;;
37655;SDS011;23498;50.958;3.124;2023-02-28T17:36:47;10.50;;;5.28;;
37655;SDS011;23498;50.958;3.124;2023-02-28T17:39:13;9.50;;;5.63;;
37655;SDS011;23498;50.958;3.124;2023-02-28T17:41:40;9.75;;;5.70;;
37655;SDS011;23498;50.958;3.124;2023-02-28T17:44:06;8.75;;;5.15;;
37655;SDS011;23498;50.958;3.124;2023-02-28T17:46:33;9.60;;;5.30;;
37655;SDS011;23498;50.958;3.124;2023-02-28T17:48:59;7.43;;;4.70;;